Home > Products > Valid Products > TAF

000
FTUS41 KGYX 251801 AAA
TAFLEB
TAF AMD
KLEB 251801Z 2518/2618 VRB03KT P6SM SCT250
     FM252300 22005KT P6SM -SHRA BKN050 OVC100
     FM260300 25007KT P6SM -SHRA BKN025 OVC040
     FM261000 28008KT 1/2SM FG SCT001 OVC025
     FM261400 29010G20KT P6SM OVC050=



000
FTUS41 KGYX 251801 AAA
TAFLEB
TAF AMD
KLEB 251801Z 2518/2618 VRB03KT P6SM SCT250
     FM252300 22005KT P6SM -SHRA BKN050 OVC100
     FM260300 25007KT P6SM -SHRA BKN025 OVC040
     FM261000 28008KT 1/2SM FG SCT001 OVC025
     FM261400 29010G20KT P6SM OVC050=



000
FTUS41 KGYX 251755 AAA
TAFAUG
TAF AMD
KAUG 251755Z 2518/2618 21004KT P6SM BKN250
     FM260400 24005KT P6SM -SHRA BKN020 OVC050
     FM261300 30010G17KT P6SM OVC050=



000
FTUS41 KGYX 251755 AAA
TAFAUG
TAF AMD
KAUG 251755Z 2518/2618 21004KT P6SM BKN250
     FM260400 24005KT P6SM -SHRA BKN020 OVC050
     FM261300 30010G17KT P6SM OVC050=



000
FTUS41 KGYX 251751
TAFCON
TAF
KCON 251751Z 2518/2618 24005KT P6SM BKN250
     FM260300 27007KT P6SM BKN050 OVC120=



000
FTUS41 KGYX 251751
TAFAUG
TAF
KAUG 251751Z 2518/2618 21006KT P6SM BKN250
     FM260400 26007KT P6SM -SHRA BKN025 OVC060=



000
FTUS41 KGYX 251751
TAFPSM
TAF
KPSM 251751Z 2518/2618 23006KT P6SM BKN200
     FM260300 27007KT P6SM BKN050 OVC120=



000
FTUS41 KGYX 251751
TAFPWM
TAF
KPWM 251751Z 2518/2618 20007KT P6SM SCT250
     FM260300 26007KT P6SM BKN050 OVC120=



000
FTUS41 KGYX 251751
TAFLEB
TAF
KLEB 251751Z 2518/2618 24005KT P6SM SCT250
     FM252300 23005KT P6SM -SHRA BKN050 OVC100
     FM260300 27007KT P6SM -SHRA BKN025 OVC040=



000
FTUS41 KGYX 251751
TAFPWM
TAF
KPWM 251751Z 2518/2618 20007KT P6SM SCT250
     FM260300 26007KT P6SM BKN050 OVC120=



000
FTUS41 KGYX 251751
TAFCON
TAF
KCON 251751Z 2518/2618 24005KT P6SM BKN250
     FM260300 27007KT P6SM BKN050 OVC120=



000
FTUS41 KGYX 251751
TAFAUG
TAF
KAUG 251751Z 2518/2618 21006KT P6SM BKN250
     FM260400 26007KT P6SM -SHRA BKN025 OVC060=



000
FTUS41 KGYX 251751
TAFPSM
TAF
KPSM 251751Z 2518/2618 23006KT P6SM BKN200
     FM260300 27007KT P6SM BKN050 OVC120=



000
FTUS41 KGYX 251751
TAFLEB
TAF
KLEB 251751Z 2518/2618 24005KT P6SM SCT250
     FM252300 23005KT P6SM -SHRA BKN050 OVC100
     FM260300 27007KT P6SM -SHRA BKN025 OVC040=



000
FTUS41 KGYX 251401 AAB
TAFLEB
TAF AMD
KLEB 251401Z 2514/2612 00000KT 1/2SM FG VV001
     FM251430 24005KT P6SM SCT250
     FM252300 23005KT P6SM -SHRA BKN050 OVC100
     FM260300 27007KT P6SM -SHRA BKN025 OVC040=



000
FTUS41 KGYX 251306 AAA
TAFLEB
TAF AMD
KLEB 251306Z 2513/2612 00000KT 1/4SM FG VV001
     FM251330 24005KT P6SM BKN250
     FM252300 23005KT P6SM -SHRA BKN050 OVC100
     FM260300 27007KT P6SM -SHRA BKN025 OVC040=



000
FTUS41 KGYX 251121
TAFCON
TAF
KCON 251121Z 2512/2612 30004KT P6SM BKN200
     FM251800 24005KT P6SM BKN250
     FM260300 27007KT P6SM BKN050 OVC120=



000
FTUS41 KGYX 251121
TAFPSM
TAF
KPSM 251121Z 2512/2612 23006KT P6SM BKN200
     FM260300 27007KT P6SM BKN050 OVC120=



000
FTUS41 KGYX 251121
TAFAUG
TAF
KAUG 251121Z 2512/2612 32003KT P6SM BKN120
     FM251800 21006KT P6SM BKN250
     FM260400 26007KT P6SM -SHRA BKN025 OVC060=



000
FTUS41 KGYX 251121
TAFPWM
TAF
KPWM 251121Z 2512/2612 30005KT P6SM BKN100
     FM251700 20007KT P6SM SCT250
     FM260300 26007KT P6SM BKN050 OVC120=



000
FTUS41 KGYX 251121
TAFLEB
TAF
KLEB 251121Z 2512/2612 00000KT 1/2SM FG VV002
     FM251300 24005KT P6SM BKN250
     FM252300 23005KT P6SM -SHRA BKN050 OVC100
     FM260300 27007KT P6SM -SHRA BKN025 OVC040=



000
FTUS41 KGYX 251121
TAFAUG
TAF
KAUG 251121Z 2512/2612 32003KT P6SM BKN120
     FM251800 21006KT P6SM BKN250
     FM260400 26007KT P6SM -SHRA BKN025 OVC060=



000
FTUS41 KGYX 251121
TAFPSM
TAF
KPSM 251121Z 2512/2612 23006KT P6SM BKN200
     FM260300 27007KT P6SM BKN050 OVC120=



000
FTUS41 KGYX 251121
TAFCON
TAF
KCON 251121Z 2512/2612 30004KT P6SM BKN200
     FM251800 24005KT P6SM BKN250
     FM260300 27007KT P6SM BKN050 OVC120=



000
FTUS41 KGYX 251121
TAFLEB
TAF
KLEB 251121Z 2512/2612 00000KT 1/2SM FG VV002
     FM251300 24005KT P6SM BKN250
     FM252300 23005KT P6SM -SHRA BKN050 OVC100
     FM260300 27007KT P6SM -SHRA BKN025 OVC040=



000
FTUS41 KGYX 251121
TAFPWM
TAF
KPWM 251121Z 2512/2612 30005KT P6SM BKN100
     FM251700 20007KT P6SM SCT250
     FM260300 26007KT P6SM BKN050 OVC120=



000
FTUS41 KGYX 250925 AAA
TAFAUG
TAF AMD
KAUG 250925Z 2509/2606 32006KT P6SM BKN050 BKN120
     FM251800 21006KT P6SM BKN250=



000
FTUS41 KGYX 250925 AAA
TAFCON
TAF AMD
KCON 250925Z 2509/2606 30004KT P6SM BKN080
     FM251800 24005KT P6SM BKN250=



000
FTUS41 KGYX 250925 AAA
TAFPSM
TAF AMD
KPSM 250925Z 2509/2606 28004KT P6SM FEW050 BKN100
     FM251900 24005KT P6SM BKN250=



000
FTUS41 KGYX 250925 AAB
TAFLEB
TAF AMD
KLEB 250925Z 2509/2606 VRB03KT P6SM SCT250
      TEMPO 2509/2512 2SM BR BKN002
     FM252200 23005KT P6SM -SHRA BKN050 OVC100=



000
FTUS41 KGYX 250925 AAA
TAFPWM
TAF AMD
KPWM 250925Z 2509/2606 30005KT P6SM OVC050
     FM251900 20007KT P6SM SCT250=



000
FTUS41 KGYX 250758 AAA
TAFLEB
TAF AMD
KLEB 250758Z 2508/2606 VRB03KT P6SM SCT250
      TEMPO 2509/2512 2SM BR BKN002
     FM252200 23005KT P6SM -SHRA BKN050 OVC100=



000
FTUS41 KGYX 250520
TAFLEB
TAF
KLEB 250520Z 2506/2606 VRB03KT P6SM SCT250
      TEMPO 2510/2513 2SM BR BKN002
     FM252200 23005KT P6SM -SHRA BKN050 OVC100=



000
FTUS41 KGYX 250520
TAFAUG
TAF
KAUG 250520Z 2506/2606 32006KT P6SM BKN050 BKN120
     FM251800 21006KT P6SM BKN250=



000
FTUS41 KGYX 250520
TAFPWM
TAF
KPWM 250520Z 2506/2606 30005KT P6SM OVC050
     FM251900 20007KT P6SM SCT250=



000
FTUS41 KGYX 250520
TAFCON
TAF
KCON 250520Z 2506/2606 30004KT P6SM BKN080
     FM251800 24005KT P6SM BKN250=



000
FTUS41 KGYX 250520
TAFPSM
TAF
KPSM 250520Z 2506/2606 28004KT P6SM FEW050 BKN100
     FM251900 24005KT P6SM BKN250=



000
FTUS41 KGYX 250221 AAA
TAFAUG
TAF AMD
KAUG 250221Z 2502/2524 33010KT P6SM OVC022
     FM250700 33005KT P6SM BKN050
     FM251000 VRB04KT P6SM SCT050 BKN100=



000
FTUS41 KGYX 250219 AAA
TAFPSM
TAF AMD
KPSM 250219Z 2502/2524 29004KT P6SM FEW025 OVC040
     FM250400 27005KT P6SM SCT030 BKN050 BKN080=



000
FTUS41 KGYX 250216 AAA
TAFCON
TAF AMD
KCON 250216Z 2502/2524 VRB03KT P6SM SCT025 BKN050 BKN090=



000
FTUS41 KGYX 250211 AAA
TAFLEB
TAF AMD
KLEB 250211Z 2502/2524 33003KT P6SM FEW020 SCT090
     FM250900 00000KT 1/4SM FG OVC001
     FM251400 26003KT P6SM BKN250
     FM252000 23005KT P6SM VCSH SCT050 BKN200=



000
FTUS41 KGYX 250209 AAA
TAFPWM
TAF AMD
KPWM 250209Z 2502/2524 32007KT P6SM BKN030 OVC070
     FM250400 30005KT P6SM SCT025 BKN045 BKN080
     FM250800 30004KT P6SM SCT050 BKN100
     FM251200 28005KT P6SM SCT050 SCT100
     FM251900 20007KT P6SM SCT120 BKN250=



000
FTUS41 KGYX 242324
TAFLEB
TAF
KLEB 242324Z 2500/2524 33007KT P6SM OVC020
      TEMPO 2502/2506 SCT025 BKN035 OVC050
     FM250600 VRB03KT P6SM SCT035 BKN050 BKN070
     FM250900 00000KT P6SM SCT050 BKN080
     FM251200 26004KT P6SM SCT045 SCT100
     FM252000 23004KT P6SM SCT050 BKN200=



000
FTUS41 KGYX 242324
TAFAUG
TAF
KAUG 242324Z 2500/2524 34012G18KT P6SM VCSH SCT020 BKN030 OVC070
      TEMPO 2500/2504 BKN015 OVC030
     FM250400 33009KT P6SM SCT030 BKN045 OVC070
     FM250900 30007KT P6SM SCT050 BKN080
     FM251300 30005KT P6SM SCT050 BKN100
     FM251800 20004KT P6SM SCT120 BKN250=



000
FTUS41 KGYX 242324
TAFPSM
TAF
KPSM 242324Z 2500/2524 30007KT P6SM BKN025 OVC040
      TEMPO 2500/2504 SCT030 BKN045 BKN070
     FM250400 28006KT P6SM SCT030 BKN045 BKN080
     FM250900 28004KT P6SM SCT050 BKN100
     FM251200 26005KT P6SM SCT120
     FM251800 22006KT P6SM BKN250=



000
FTUS41 KGYX 242324
TAFPWM
TAF
KPWM 242324Z 2500/2524 32005KT P6SM BKN030 OVC070
      TEMPO 2500/2503 SCT030 BKN040 BKN070
     FM250300 30005KT P6SM SCT025 BKN045 BKN080
     FM250800 30004KT P6SM SCT050 BKN100
     FM251200 28005KT P6SM SCT050 SCT100
     FM251900 20007KT P6SM SCT120 BKN250=



000
FTUS41 KGYX 242324
TAFCON
TAF
KCON 242324Z 2500/2524 31009G18KT P6SM BKN025 OVC090
      TEMPO 2500/2504 SCT025 BKN040 BKN090
     FM250400 30004KT P6SM SCT025 BKN040 BKN090
     FM250800 VRB03KT P6SM SCT050 BKN100
     FM251200 28005KT P6SM SCT050 SCT100
     FM252000 23005KT P6SM SCT120 BKN250=



000
FTUS41 KGYX 242106 AAB
TAFPSM
TAF AMD
KPSM 242106Z 2421/2518 30007KT P6SM BKN020 OVC040
      TEMPO 2421/2424 BKN015 OVC025
     FM250000 28006KT P6SM SCT025 BKN050 BKN100
     FM250600 28005KT P6SM SCT050 BKN100
     FM251200 28005KT P6SM SCT050=



000
FTUS41 KGYX 241959 AAA
TAFCON
TAF AMD
KCON 241959Z 2420/2518 31009KT P6SM BKN020 BKN035
      TEMPO 2420/2424 SCT025 BKN040 BKN080
     FM250000 30009KT P6SM SCT025 BKN040 BKN090
     FM250500 30007KT P6SM SCT050 BKN100
     FM251200 28005KT P6SM SCT050=



000
FTUS41 KGYX 241959 AAA
TAFCON
TAF AMD
KCON 241959Z 2420/2518 31009KT P6SM BKN020 BKN035
      TEMPO 2420/2424 SCT025 BKN040 BKN080
     FM250000 30009KT P6SM SCT025 BKN040 BKN090
     FM250500 30007KT P6SM SCT050 BKN100
     FM251200 28005KT P6SM SCT050=



000
FTUS41 KGYX 241957 AAA
TAFPSM
TAF AMD
KPSM 241957Z 2420/2518 30007KT P6SM BKN020 OVC040
      TEMPO 2420/2424 SCT025 BKN045
     FM250000 28006KT P6SM SCT025 BKN050 BKN100
     FM250600 28005KT P6SM SCT050 BKN100
     FM251200 28005KT P6SM SCT050=



000
FTUS41 KGYX 241957 AAA
TAFPSM
TAF AMD
KPSM 241957Z 2420/2518 30007KT P6SM BKN020 OVC040
      TEMPO 2420/2424 SCT025 BKN045
     FM250000 28006KT P6SM SCT025 BKN050 BKN100
     FM250600 28005KT P6SM SCT050 BKN100
     FM251200 28005KT P6SM SCT050=



000
FTUS41 KGYX 241955 AAA
TAFPWM
TAF AMD
KPWM 241955Z 2420/2518 35010G20KT P6SM BKN020 OVC040
      TEMPO 2420/2424 SCT025 BKN040
     FM250000 32009KT P6SM SCT025 BKN045
     FM250600 30007KT P6SM SCT050 BKN100
     FM251200 28005KT P6SM SCT050=



000
FTUS41 KGYX 241955 AAA
TAFPWM
TAF AMD
KPWM 241955Z 2420/2518 35010G20KT P6SM BKN020 OVC040
      TEMPO 2420/2424 SCT025 BKN040
     FM250000 32009KT P6SM SCT025 BKN045
     FM250600 30007KT P6SM SCT050 BKN100
     FM251200 28005KT P6SM SCT050=



000
FTUS41 KGYX 241734
TAFAUG
TAF
KAUG 241734Z 2418/2518 35012G18KT P6SM OVC010
     FM242200 32009KT P6SM SCT010 OVC035
     FM250600 30007KT P6SM SCT040 BKN100
     FM251200 30005KT P6SM SCT040=



000
FTUS41 KGYX 241734
TAFCON
TAF
KCON 241734Z 2418/2518 31009KT P6SM VCSH OVC015
     FM242200 32009KT P6SM SCT015 BKN040
     FM250500 30007KT P6SM SCT050 BKN100
     FM251200 28005KT P6SM SCT050=



000
FTUS41 KGYX 241734
TAFPWM
TAF
KPWM 241734Z 2418/2518 35010G20KT P6SM BKN035
      TEMPO 2418/2420 BKN015
     FM242200 32009KT P6SM BKN050
     FM250600 30007KT P6SM SCT050 BKN100
     FM251200 28005KT P6SM SCT050=



000
FTUS41 KGYX 241734
TAFPSM
TAF
KPSM 241734Z 2418/2518 33011KT P6SM VCSH OVC017
     FM242200 32009KT P6SM SCT017 BKN040
     FM250500 30007KT P6SM SCT050 BKN100
     FM251200 28005KT P6SM SCT050=



000
FTUS41 KGYX 241734
TAFLEB
TAF
KLEB 241734Z 2418/2518 33007KT P6SM OVC015
     FM242200 33008KT P6SM SCT015 BKN035
     FM250500 VRB03KT P6SM SCT035 BKN100
     FM250900 00000KT 5SM BR SCT005 SCT035
     FM251200 27004KT P6SM SCT045=



000
FTUS41 KGYX 241428 AAA
TAFAUG
TAF AMD
KAUG 241428Z 2414/2512 35012G20KT P6SM VCSH BKN010 OVC020
     FM241800 34014G24KT P6SM VCSH BKN025 OVC040
     FM242200 32007KT P6SM BKN050=



000
FTUS41 KGYX 241427 AAB
TAFPSM
TAF AMD
KPSM 241427Z 2414/2512 33011KT P6SM VCSH OVC013
     FM241600 33011KT P6SM VCSH SCT015 OVC035
     FM241800 31009KT P6SM BKN040 BKN080=



000
FTUS41 KGYX 241426 AAB
TAFPWM
TAF AMD
KPWM 241426Z 2414/2512 34010G17KT 2SM -SHRA OVC013
     FM241600 34013G20KT P6SM -SHRA BKN015 OVC040
     FM241800 33013G20KT P6SM SCT025 BKN035 OVC050
     FM242200 32007KT P6SM BKN050=



000
FTUS41 KGYX 241426 AAB
TAFPWM
TAF AMD
KPWM 241426Z 2414/2512 34010G17KT 2SM -SHRA OVC013
     FM241600 34013G20KT P6SM -SHRA BKN015 OVC040
     FM241800 33013G20KT P6SM SCT025 BKN035 OVC050
     FM242200 32007KT P6SM BKN050=



000
FTUS41 KGYX 241332 AAA
TAFPWM
TAF AMD
KPWM 241332Z 2414/2512 35010G17KT 3SM -SHRA OVC012
     FM241500 34013G20KT P6SM -SHRA SCT009 BKN015 OVC040
     FM241800 33013G20KT P6SM SCT025 BKN035 OVC050
     FM242200 32007KT P6SM BKN050=



000
FTUS41 KGYX 241331 AAA
TAFPSM
TAF AMD
KPSM 241331Z 2414/2512 34011KT 2SM -SHRA OVC005
     FM241500 33011KT P6SM VCSH SCT015 OVC035
     FM241800 31009KT P6SM BKN040 BKN080=



000
FTUS41 KGYX 241122
TAFLEB
TAF
KLEB 241122Z 2412/2512 34005KT P6SM VCSH OVC006
     FM241400 34008KT P6SM VCSH OVC015
     FM241700 33008KT P6SM SCT025 BKN035 BKN070
     FM242100 34005KT P6SM BKN050=



000
FTUS41 KGYX 241122
TAFPSM
TAF
KPSM 241122Z 2412/2512 36011KT 6SM -SHRA SCT007 OVC025
     FM241400 33011KT P6SM VCSH SCT015 OVC035
     FM241800 31009KT P6SM BKN040 BKN080=



000
FTUS41 KGYX 241122
TAFPWM
TAF
KPWM 241122Z 2412/2512 35010G17KT 5SM -SHRA OVC009
     FM241300 34013G20KT P6SM -SHRA SCT009 BKN015 OVC040
     FM241800 33013G20KT P6SM SCT025 BKN035 OVC050
     FM242200 32007KT P6SM BKN050=



000
FTUS41 KGYX 241122
TAFAUG
TAF
KAUG 241122Z 2412/2512 36013G20KT 6SM -RA BR BKN007 OVC015
     FM241300 34012G22KT P6SM -SHRA BKN015 OVC035
     FM241800 34014G24KT P6SM VCSH BKN025 OVC040
     FM242200 32007KT P6SM BKN050=



000
FTUS41 KGYX 241122
TAFCON
TAF
KCON 241122Z 2412/2512 33007KT P6SM VCSH BKN025 OVC035
     FM241500 32011KT P6SM BKN025 OVC040
     FM241700 32011G17KT P6SM SCT025 BKN040 BKN080
     FM242200 33006KT P6SM BKN050=



000
FTUS41 KGYX 240903 AAB
TAFLEB
TAF AMD
KLEB 240903Z 2409/2506 34005KT 6SM -SHRA BR SCT008 OVC015
     FM241400 34008KT P6SM VCSH OVC015
     FM241700 33008KT P6SM SCT025 BKN035 BKN070=



000
FTUS41 KGYX 240903 AAA
TAFCON
TAF AMD
KCON 240903Z 2409/2506 34007KT P6SM -SHRA BKN025 OVC035
     FM241300 32011KT P6SM -SHRA BKN025 OVC040
     FM241700 32011G17KT P6SM SCT025 BKN040 BKN080=



000
FTUS41 KGYX 240903 AAB
TAFAUG
TAF AMD
KAUG 240903Z 2409/2506 36013G20KT 6SM -RA BR BKN007 OVC015
     FM241300 34012G22KT P6SM -SHRA BKN015 OVC035
     FM241800 34014G24KT P6SM VCSH BKN025 OVC040=



000
FTUS41 KGYX 240903 AAA
TAFPWM
TAF AMD
KPWM 240903Z 2409/2506 35010G17KT 6SM -SHRA SCT009 BKN015 OVC035
     FM241300 34013G20KT P6SM -SHRA BKN025 OVC040
     FM241800 33013G20KT P6SM VCSH SCT025 BKN035 OVC050=



000
FTUS41 KGYX 240903 AAA
TAFPSM
TAF AMD
KPSM 240903Z 2409/2506 36013G17KT 6SM -SHRA OVC012
     FM241300 33012G20KT P6SM -SHRA BKN015 OVC035
     FM241800 31010KT P6SM SCT025 BKN040 BKN080=



000
FTUS41 KGYX 240818 AAA
TAFAUG
TAF AMD
KAUG 240818Z 2408/2506 36013G20KT 5SM -RA BR SCT007 OVC010
     FM241300 34012G22KT P6SM -SHRA BKN015 OVC035
     FM241800 34014G24KT P6SM VCSH BKN025 OVC040=



000
FTUS41 KGYX 240818 AAA
TAFAUG
TAF AMD
KAUG 240818Z 2408/2506 36013G20KT 5SM -RA BR SCT007 OVC010
     FM241300 34012G22KT P6SM -SHRA BKN015 OVC035
     FM241800 34014G24KT P6SM VCSH BKN025 OVC040=



000
FTUS41 KGYX 240817 AAA
TAFLEB
TAF AMD
KLEB 240817Z 2408/2506 36005KT 6SM -SHRA BR SCT008 OVC012
     FM241400 34008KT P6SM VCSH OVC015
     FM241700 33008KT P6SM SCT025 BKN035 BKN070=



000
FTUS41 KGYX 240520
TAFLEB
TAF
KLEB 240520Z 2406/2506 36005KT P6SM -RA OVC007
     FM240900 34004KT 6SM -SHRA BR SCT008 OVC012
     FM241400 34008KT P6SM VCSH OVC015
     FM241700 33008KT P6SM SCT025 BKN035 BKN070=



000
FTUS41 KGYX 240520
TAFAUG
TAF
KAUG 240520Z 2406/2506 36013G23KT 5SM -RA BR SCT007 OVC010
     FM241300 34012G22KT P6SM -SHRA BKN015 OVC035
     FM241800 34014G24KT P6SM VCSH BKN025 OVC040=



000
FTUS41 KGYX 240520
TAFPSM
TAF
KPSM 240520Z 2406/2506 36013G20KT 6SM -SHRA OVC012
     FM241300 33012G20KT P6SM -SHRA BKN015 OVC035
     FM241800 31010KT P6SM SCT025 BKN040 BKN080=



000
FTUS41 KGYX 240520
TAFCON
TAF
KCON 240520Z 2406/2506 34007KT P6SM -SHRA BKN025 OVC035
     FM241300 32011KT P6SM -SHRA BKN025 OVC040
     FM241700 32011G17KT P6SM SCT025 BKN040 BKN080=



000
FTUS41 KGYX 240520
TAFPWM
TAF
KPWM 240520Z 2406/2506 01013G20KT 3SM -SHRA SCT009 BKN015 OVC035
     FM241300 34013G20KT P6SM -SHRA BKN025 OVC040
     FM241800 33013G20KT P6SM VCSH SCT025 BKN035 OVC050=



000
FTUS41 KGYX 240401 AAB
TAFAUG
TAF AMD
KAUG 240401Z 2404/2424 01012G22KT 5SM -SHRA BR OVC008
     FM241300 34012G22KT P6SM -SHRA BKN008 OVC012
     FM241800 34014G24KT P6SM VCSH BKN015 OVC025=



000
FTUS41 KGYX 240401 AAB
TAFAUG
TAF AMD
KAUG 240401Z 2404/2424 01012G22KT 5SM -SHRA BR OVC008
     FM241300 34012G22KT P6SM -SHRA BKN008 OVC012
     FM241800 34014G24KT P6SM VCSH BKN015 OVC025=



000
FTUS41 KGYX 240346 AAA
TAFLEB
TAF AMD
KLEB 240346Z 2404/2424 36006KT P6SM VCSH SCT008 OVC012
     FM240400 34004KT 3SM -SHRA BR SCT008 OVC012
     FM241400 34008KT P6SM VCSH SCT008 OVC015
     FM241700 33008KT P6SM SCT025 BKN035 BKN070=



000
FTUS41 KGYX 240346 AAA
TAFLEB
TAF AMD
KLEB 240346Z 2404/2424 36006KT P6SM VCSH SCT008 OVC012
     FM240400 34004KT 3SM -SHRA BR SCT008 OVC012
     FM241400 34008KT P6SM VCSH SCT008 OVC015
     FM241700 33008KT P6SM SCT025 BKN035 BKN070=



000
FTUS41 KGYX 240253 AAA
TAFPWM
TAF AMD
KPWM 240253Z 2403/2424 02015G23KT P6SM -SHRA SCT012 BKN020
     FM240400 36015G23KT 5SM -SHRA BR OVC007
     FM241300 33015G25KT P6SM -SHRA SCT008 BKN015 OVC025
     FM241800 33015G25KT P6SM VCSH SCT025 BKN035 OVC050=



000
FTUS41 KGYX 240253 AAA
TAFPWM
TAF AMD
KPWM 240253Z 2403/2424 02015G23KT P6SM -SHRA SCT012 BKN020
     FM240400 36015G23KT 5SM -SHRA BR OVC007
     FM241300 33015G25KT P6SM -SHRA SCT008 BKN015 OVC025
     FM241800 33015G25KT P6SM VCSH SCT025 BKN035 OVC050=



000
FTUS41 KGYX 240253 AAA
TAFAUG
TAF AMD
KAUG 240253Z 2403/2424 01012G22KT 5SM -SHRA BR OVC008
     FM240400 36015G22KT 3SM -SHRA BR OVC005
     FM241300 34012G22KT P6SM -SHRA BKN008 OVC012
     FM241800 34014G24KT P6SM VCSH BKN015 OVC025=



000
FTUS41 KGYX 240253 AAA
TAFAUG
TAF AMD
KAUG 240253Z 2403/2424 01012G22KT 5SM -SHRA BR OVC008
     FM240400 36015G22KT 3SM -SHRA BR OVC005
     FM241300 34012G22KT P6SM -SHRA BKN008 OVC012
     FM241800 34014G24KT P6SM VCSH BKN015 OVC025=



000
FTUS41 KGYX 232320
TAFPSM
TAF
KPSM 232320Z 2400/2424 01014G24KT P6SM -SHRA SCT007 OVC012
      TEMPO 2400/2404 3SM RA BR BKN007 OVC012
     FM240400 36012G22KT 4SM -SHRA BR BKN006 OVC012
     FM241300 32012G22KT P6SM -SHRA SCT008 BKN012 OVC020
     FM241800 31010KT P6SM SCT025 BKN040 BKN080=



000
FTUS41 KGYX 232320
TAFPWM
TAF
KPWM 232320Z 2400/2424 02015G23KT P6SM -SHRA SCT008 OVC015
      TEMPO 2400/2404 4SM RA BR BKN007 OVC012
     FM240400 36015G23KT 5SM -SHRA BR OVC007
     FM241300 33015G25KT P6SM -SHRA SCT008 BKN015 OVC025
     FM241800 33015G25KT P6SM VCSH SCT025 BKN035 OVC050=



000
FTUS41 KGYX 232320
TAFAUG
TAF
KAUG 232320Z 2400/2424 01012G22KT 5SM -SHRA BR BKN008 OVC012
      TEMPO 2400/2404 3SM RA BR BKN005 OVC010
     FM240400 36015G22KT 3SM -SHRA BR OVC005
     FM241300 34012G22KT P6SM -SHRA BKN008 OVC012
     FM241800 34014G24KT P6SM VCSH BKN015 OVC025=



000
FTUS41 KGYX 232320
TAFCON
TAF
KCON 232320Z 2400/2424 01013G22KT P6SM -SHRA OVC015
      TEMPO 2400/2404 4SM SHRA SCT015 BKN025 OVC035
     FM240400 34010KT 4SM -SHRA BR SCT008 OVC012
     FM241300 32011KT P6SM -SHRA SCT015 OVC025
     FM241700 32012G22KT P6SM SCT025 BKN040 BKN080=



000
FTUS41 KGYX 232320
TAFLEB
TAF
KLEB 232320Z 2400/2424 34006KT P6SM -SHRA SCT008 OVC012
      TEMPO 2400/2404 4SM SHRA BR BKN008 OVC012
     FM240400 34004KT 3SM -SHRA BR OVC007
     FM241400 34008KT P6SM VCSH SCT008 OVC015
     FM241700 33008KT P6SM SCT025 BKN035 BKN070=



000
FTUS41 KGYX 232053 AAA
TAFCON
TAF AMD
KCON 232053Z 2321/2418 03011G19KT P6SM -SHRA OVC015
      TEMPO 2321/2324 4SM SHRA SCT015 BKN025 OVC035
     FM240000 34010KT 4SM -SHRA BR SCT008 OVC012
     FM241500 32011KT P6SM OVC025=



000
FTUS41 KGYX 232051 AAA
TAFPSM
TAF AMD
KPSM 232051Z 2321/2418 02017G27KT 4SM SHRA BR OVC008
     FM240000 35015G22KT 6SM -RA BR OVC004
     FM241500 32011G20KT P6SM OVC015=



000
FTUS41 KGYX 231922 AAB
TAFPWM
TAF AMD
KPWM 231922Z 2319/2418 04015G26KT 6SM -RA BR OVC015
     FM240300 34015G23KT 6SM -RA BR OVC007=



000
FTUS41 KGYX 231922 AAB
TAFPWM
TAF AMD
KPWM 231922Z 2319/2418 04015G26KT 6SM -RA BR OVC015
     FM240300 34015G23KT 6SM -RA BR OVC007=



000
FTUS41 KGYX 231917 AAA
TAFPWM
TAF AMD
KPWM 231917Z 2319/2418 03015G26KT 1 1/2SM RA BR OVC020
     FM240300 34015G23KT 6SM -RA BR OVC007=



000
FTUS41 KGYX 231917 AAA
TAFPWM
TAF AMD
KPWM 231917Z 2319/2418 03015G26KT 1 1/2SM RA BR OVC020
     FM240300 34015G23KT 6SM -RA BR OVC007=



000
FTUS41 KGYX 231758 AAA
TAFLEB
TAF AMD
KLEB 231758Z 2318/2418 36011KT 6SM -SHRA BR OVC012
     FM240200 34004KT 2SM BR OVC004
     FM241500 33004KT 6SM BR OVC015=



000
FTUS41 KGYX 231758 AAA
TAFLEB
TAF AMD
KLEB 231758Z 2318/2418 36011KT 6SM -SHRA BR OVC012
     FM240200 34004KT 2SM BR OVC004
     FM241500 33004KT 6SM BR OVC015=



000
FTUS41 KGYX 231731
TAFAUG
TAF
KAUG 231731Z 2318/2418 02012G22KT 2SM -RA BR OVC008
     FM240500 34015KT 4SM -RA BR OVC005=



000
FTUS41 KGYX 231731
TAFPWM
TAF
KPWM 231731Z 2318/2418 03015G23KT 6SM -RA BR OVC012
     FM240300 34015G23KT 6SM -RA BR OVC007=



000
FTUS41 KGYX 231731
TAFPSM
TAF
KPSM 231731Z 2318/2418 02017G27KT 2SM -RA BR OVC008
     FM240000 35015G22KT 6SM -RA BR OVC005
     FM241500 32011G20KT P6SM OVC015=



000
FTUS41 KGYX 231731
TAFCON
TAF
KCON 231731Z 2318/2418 01011G19KT 6SM -RA BR OVC020
     FM240000 34010KT P6SM -SHRA OVC012
     FM241500 32011KT P6SM OVC025=



000
FTUS41 KGYX 231731
TAFLEB
TAF
KLEB 231731Z 2318/2418 36009KT 6SM -SHRA BR OVC002
     FM240200 34004KT 2SM BR OVC004
     FM241500 33004KT 6SM BR OVC015=



000
FTUS41 KGYX 231609 AAA
TAFLEB
TAF AMD
KLEB 231609Z 2316/2412 32005KT 2SM -RA BR OVC002
     FM240200 36004KT 2SM BR OVC004=



000
FTUS41 KGYX 231354 AAB
TAFPSM
TAF AMD
KPSM 231354Z 2314/2412 03017G26KT 1SM RA BR OVC008 WS020/04060KT
     FM231500 03017G30KT 4SM -RA BR OVC007
     FM240000 01015G22KT 6SM -RA BR OVC003=



000
FTUS41 KGYX 231343 AAA
TAFCON
TAF AMD
KCON 231343Z 2314/2412 01010G19KT 2SM RA BR OVC015 WS020/05055KT
     FM231800 36015G23KT P6SM -SHRA OVC012=



000
FTUS41 KGYX 231323 AAA
TAFPWM
TAF AMD
KPWM 231323Z 2313/2412 02020G30KT 2SM RA BR OVC010 WS020/04060KT
     FM231500 02020G28KT 3SM RA BR OVC007
     FM240300 35016G23KT 6SM -RA BR OVC005=



000
FTUS41 KGYX 231323 AAB
TAFAUG
TAF AMD
KAUG 231323Z 2313/2412 03017G30KT 2SM -RA BR OVC007 WS020/06050KT
     FM231600 03015G28KT 3SM RA BR OVC007
     FM240500 35015KT 4SM -RA BR OVC003=



000
FTUS41 KGYX 231322 AAA
TAFPSM
TAF AMD
KPSM 231322Z 2313/2412 03017G32KT 3SM TSRA BR OVC002CB
      WS020/04060KT
     FM231500 03017G30KT 4SM -RA BR OVC007
     FM240000 01015G22KT 6SM -RA BR OVC003=



000
FTUS41 KGYX 231235 AAA
TAFAUG
TAF AMD
KAUG 231235Z 2313/2412 03017G30KT 6SM -RA BR OVC008 WS020/06050KT
     FM231600 03015G28KT 3SM RA BR OVC007
     FM240500 35015KT 4SM -RA BR OVC003=



000
FTUS41 KGYX 231120
TAFPSM
TAF
KPSM 231120Z 2312/2412 03017G32KT 2SM RA BR OVC005 WS020/04060KT
     FM231500 03017G30KT 4SM -RA BR OVC007
     FM240000 01015G22KT 6SM -RA BR OVC003=



000
FTUS41 KGYX 231120
TAFLEB
TAF
KLEB 231120Z 2312/2412 36012KT 6SM -RA BR OVC015
     FM240200 36004KT 2SM BR OVC004=



000
FTUS41 KGYX 231120
TAFPWM
TAF
KPWM 231120Z 2312/2412 02020G30KT 4SM -RA BR OVC008 WS020/04060KT
     FM231500 02020G28KT 3SM RA BR OVC007
     FM240300 35016G23KT 6SM -RA BR OVC005=



000
FTUS41 KGYX 231120
TAFCON
TAF
KCON 231120Z 2312/2412 01015G23KT 6SM -RA BR OVC012 WS020/05055KT
     FM231800 36015G23KT P6SM -SHRA OVC012=



000
FTUS41 KGYX 231120
TAFAUG
TAF
KAUG 231120Z 2312/2412 03017G30KT 5SM -RA BR OVC007 WS020/06050KT
     FM231600 03015G28KT 3SM RA BR OVC007
     FM240500 35015KT 4SM -RA BR OVC003=



000
FTUS41 KGYX 230834 AAA
TAFCON
TAF AMD
KCON 230834Z 2309/2406 01012G20KT 6SM -RA BR OVC015 WS020/06050KT
     FM231000 02015G23KT 2SM RA BR OVC007 WS020/05055KT
     FM231500 36015G23KT 4SM -RA BR OVC007
     FM231800 36015G23KT P6SM -SHRA OVC012=



000
FTUS41 KGYX 230833 AAA
TAFLEB
TAF AMD
KLEB 230833Z 2309/2406 01009KT P6SM -RA BKN012 OVC025
     FM231000 36010KT 3SM RA BR OVC007
     FM231400 36010KT 6SM -RA BR OVC012=



000
FTUS41 KGYX 230832 AAA
TAFPWM
TAF AMD
KPWM 230832Z 2309/2406 03016G30KT 5SM -RA SCT007 OVC012
      WS020/04055KT
     FM231000 03017G30KT 3SM RA BR OVC004 WS020/04060KT
     FM231500 03015G28KT 5SM -RA BR OVC007
     FM231800 02015G28KT P6SM -SHRA OVC012=



000
FTUS41 KGYX 230530
TAFCON
TAF
KCON 230530Z 2306/2406 01012G20KT 6SM -RA BR OVC015 WS020/06050KT
     FM230700 02015G23KT 2SM RA BR OVC007 WS020/05055KT
     FM231400 36015G23KT 4SM -RA BR OVC007
     FM231800 36015G23KT P6SM -SHRA OVC012=



000
FTUS41 KGYX 230530
TAFLEB
TAF
KLEB 230530Z 2306/2406 01009KT P6SM VCSH OVC025
     FM230630 36010KT 5SM -RA BR OVC015
     FM230800 36010KT 3SM RA BR OVC007
     FM231400 36010KT 6SM -RA BR OVC012=



000
FTUS41 KGYX 230530
TAFAUG
TAF
KAUG 230530Z 2306/2406 03017G27KT 5SM -DZ BR OVC007 WS020/06045KT
     FM231000 03017G30KT 2SM RA BR OVC004 WS020/06050KT
     FM231600 03015G28KT 5SM -RA BR OVC007
     FM232000 02015G28KT P6SM -SHRA OVC012=



000
FTUS41 KGYX 230530
TAFPSM
TAF
KPSM 230530Z 2306/2406 03017G27KT 4SM -RA BR SCT003 OVC007
      WS020/04050KT
     FM230700 03017G30KT 2SM RA BR OVC004 WS020/04060KT
     FM231400 03017G30KT 4SM -RA BR OVC007
     FM231800 02015G28KT P6SM -SHRA OVC012=



000
FTUS41 KGYX 230530
TAFPWM
TAF
KPWM 230530Z 2306/2406 03016G30KT 5SM -RA SCT007 OVC012
      WS020/04055KT
     FM230800 03017G30KT 3SM RA BR OVC004 WS020/04060KT
     FM231500 03015G28KT 5SM -RA BR OVC007
     FM231800 02015G28KT P6SM -SHRA OVC012=



000
FTUS41 KGYX 230429 AAA
TAFLEB
TAF AMD
KLEB 230429Z 2304/2324 01009KT P6SM VCSH OVC025
     FM230600 36010KT 5SM -RA BR OVC015
     FM230800 36010KT 2SM RA BR OVC007
     FM231400 36010KT 4SM -RA BR OVC012=



000
FTUS41 KGYX 230427 AAA
TAFCON
TAF AMD
KCON 230427Z 2304/2324 02012G20KT 6SM -RA BR OVC015 WS020/06050KT
     FM230700 02015G23KT 3SM -RA BR OVC007 WS020/05055KT
     FM231000 01015G23KT 2SM RA BR OVC004 WS020/05055KT
     FM231400 36015G23KT 4SM -RA BR OVC007=



000
FTUS41 KGYX 230424 AAA
TAFPSM
TAF AMD
KPSM 230424Z 2304/2324 03017G27KT 3SM -RA BR SCT003 OVC007
      WS020/04050KT
     FM230800 03017G30KT 3SM -RADZ BR OVC004 WS020/04060KT
     FM231400 03017G30KT 2SM RA BR OVC007=



000
FTUS41 KGYX 230424 AAA
TAFPSM
TAF AMD
KPSM 230424Z 2304/2324 03017G27KT 3SM -RA BR SCT003 OVC007
      WS020/04050KT
     FM230800 03017G30KT 3SM -RADZ BR OVC004 WS020/04060KT
     FM231400 03017G30KT 2SM RA BR OVC007=



000
FTUS41 KGYX 230416 AAA
TAFAUG
TAF AMD
KAUG 230416Z 2304/2324 03017G27KT 5SM -DZ BR OVC007 WS020/06045KT
     FM230800 03017G30KT 3SM -RADZ BR OVC004 WS020/06050KT
     FM231500 03017G30KT 2SM RA BR OVC005=



000
FTUS41 KGYX 230416 AAA
TAFAUG
TAF AMD
KAUG 230416Z 2304/2324 03017G27KT 5SM -DZ BR OVC007 WS020/06045KT
     FM230800 03017G30KT 3SM -RADZ BR OVC004 WS020/06050KT
     FM231500 03017G30KT 2SM RA BR OVC005=



000
FTUS41 KGYX 230410 AAA
TAFPWM
TAF AMD
KPWM 230410Z 2304/2324 03016G30KT 5SM RA BKN007 OVC015
      WS020/04055KT
     FM230800 03017G30KT 3SM -RADZ BR OVC004 WS020/04060KT
     FM231500 03016G28KT 2SM RA BR OVC005=



000
FTUS41 KGYX 222320
TAFCON
TAF
KCON 222320Z 2300/2324 03014G24KT 3SM -RA BR BKN013 OVC019
     FM231000 35018KT 3SM -RADZ BR OVC005=



000
FTUS41 KGYX 222320
TAFAUG
TAF
KAUG 222320Z 2300/2324 03017G30KT P6SM OVC010
      TEMPO 2300/2304 2SM -RADZ BR OVC004
     FM230400 03017G30KT 3SM -RADZ BR OVC004
     FM231500 03017G30KT 2SM RA BR OVC005=



000
FTUS41 KGYX 222320
TAFLEB
TAF
KLEB 222320Z 2300/2324 01009KT 5SM -RADZ OVC022
     FM231400 36012G22KT 2SM RA BR OVC005=



000
FTUS41 KGYX 222320
TAFPWM
TAF
KPWM 222320Z 2300/2324 03016G30KT P6SM OVC011
      TEMPO 2300/2304 2SM -RADZ BR OVC004
     FM230400 03017G30KT 3SM -RADZ BR OVC004
     FM231500 03016G28KT 2SM RA BR OVC005=



000
FTUS41 KGYX 222320
TAFPSM
TAF
KPSM 222320Z 2300/2324 03024G33KT 2SM -RA BR OVC005
      TEMPO 2300/2304 2SM -RADZ BR OVC004
     FM230400 03017G30KT 3SM -RADZ BR OVC004
     FM231500 03017G30KT 2SM RA BR OVC005=



    US Dept of Commerce
    National Oceanic and Atmospheric Administration
    National Weather Service
    1325 East West Highway
    Silver Spring, MD 20910
    Page Author: NWS Internet Services Team
Disclaimer
Information Quality
Credits
Glossary
Privacy Policy
Freedom of Information Act (FOIA)
About Us
Career Opportunities